Montego Bay/Sangster International Airport

Airport
ICAO code: 
MKJS
IATA Code: 
MBJ
Summary
ICAO Region: 
CARSAM
Territory: 
Location: 
Montego Bay,
Serving: 
Montego Bay
Elevation: 
4 ft
Coordinates: 
Aerial View: 
18° 30' 4.293" N, 77° 54' 48.183" W
Airport WX: 
Tropical Revolving Storm
Metar
Observation
MKJS 071800Z 07014KT 9999 FEW020 30/23 Q1015
Station
Montego Bay / Sangster
Date/Time
2021-12-07 18:00:00
Wind direction
70°
Wind speed
14 kts
Lowest cloud amount
few clouds
Temperature
30°C
Dew point
23°C
Humidity
66%
QNH
1015 hPa
Weather condition
n/a

Description

International airport serving Montego Bay, Jamaica.

Climatology

Tropical Savanna climate (Köppen climate classification Aw)

Runways

Designator Length Width Surface Rops
7/25 2662 46 ASP Yes/Yes
Airport map: 
Aerial View: 

Accidents and Serious Incidents at or in the vicinity of MKJS

SKYbrary Partners:

Safety knowledge contributed by: